Time;durP1;ratioP1;P1;durP2;ratioP2;P2;SDS_P1;SDS_P2;PMS_P1;PMS_P2;Temp;Humidity;BMP_temperature;BMP_pressure;BME280_temperature;BME280_humidity;BME280_pressure;Samples;Min_cycle;Max_cycle;Signal;HPM_P1;HPM_P2
2021/07/30 00:01:32;;;;;;;4.57;4.07;;;22.60;61.10;;;;;;4989549;28;20187;-81
2021/07/30 00:04:02;;;;;;;4.50;4.10;;;22.60;61.10;;;;;;5074104;28;20179;-82
2021/07/30 00:06:28;;;;;;;4.50;4.10;;;22.60;61.00;;;;;;5042316;28;20237;-82
2021/07/30 00:08:56;;;;;;;4.30;3.90;;;22.60;61.00;;;;;;5124783;28;20156;-81
2021/07/30 00:11:26;;;;;;;4.57;4.18;;;22.60;61.00;;;;;;5109376;28;20263;-81
2021/07/30 00:13:53;;;;;;;4.72;4.20;;;22.60;61.00;;;;;;5112472;28;20156;-82
2021/07/30 00:16:24;;;;;;;4.53;4.13;;;22.70;61.10;;;;;;5111708;28;20207;-83
2021/07/30 00:18:52;;;;;;;4.47;4.07;;;22.60;61.00;;;;;;5094841;28;20184;-81
2021/07/30 00:21:19;;;;;;;4.35;3.95;;;22.70;61.10;;;;;;5128876;28;20239;-81
2021/07/30 00:23:47;;;;;;;4.20;3.80;;;22.70;61.00;;;;;;5111784;28;20208;-81
2021/07/30 00:26:14;;;;;;;4.32;3.92;;;22.60;60.90;;;;;;5111686;28;20183;-81
2021/07/30 00:28:40;;;;;;;4.05;3.58;;;22.70;61.10;;;;;;5111462;28;20553;-81
2021/07/30 00:31:10;;;;;;;4.50;4.10;;;22.60;61.00;;;;;;5095705;28;20168;-81
2021/07/30 00:33:36;;;;;;;4.20;3.80;;;22.60;61.00;;;;;;5128962;28;20167;-82
2021/07/30 00:36:03;;;;;;;3.92;3.53;;;22.60;61.00;;;;;;5113233;28;20192;-82
2021/07/30 00:38:28;;;;;;;4.65;4.25;;;22.60;61.00;;;;;;5094314;28;20225;-81
2021/07/30 00:41:00;;;;;;;4.40;4.00;;;22.60;61.00;;;;;;5095399;28;20163;-82
2021/07/30 00:43:30;;;;;;;4.25;3.85;;;22.60;61.00;;;;;;5111586;28;20655;-81
2021/07/30 00:45:59;;;;;;;4.93;4.43;;;22.60;60.90;;;;;;5127963;28;20183;-81
2021/07/30 00:48:29;;;;;;;4.47;4.07;;;22.60;60.90;;;;;;5111125;28;20168;-82
2021/07/30 00:50:57;;;;;;;4.20;3.80;;;22.60;61.00;;;;;;5111673;28;20184;-81
2021/07/30 00:53:23;;;;;;;4.43;4.03;;;22.60;61.00;;;;;;5128007;28;20175;-81
2021/07/30 00:55:51;;;;;;;4.70;4.30;;;22.60;60.90;;;;;;5095401;28;20188;-81
2021/07/30 00:58:22;;;;;;;4.00;3.70;;;22.60;61.00;;;;;;5128489;28;20207;-81
2021/07/30 01:00:55;;;;;;;4.35;3.95;;;22.70;61.00;;;;;;5111131;28;20180;-81
2021/07/30 01:03:23;;;;;;;4.18;3.78;;;22.60;61.00;;;;;;5111373;28;20198;-82
2021/07/30 01:05:50;;;;;;;4.20;3.80;;;22.60;61.00;;;;;;5110747;28;20204;-81
2021/07/30 01:08:18;;;;;;;4.25;3.85;;;22.60;60.90;;;;;;5094275;28;20164;-81
2021/07/30 01:10:50;;;;;;;4.60;4.10;;;22.60;60.90;;;;;;5094917;28;20214;-81
2021/07/30 01:13:20;;;;;;;4.32;3.92;;;22.60;61.00;;;;;;5127738;28;20215;-82
2021/07/30 01:15:47;;;;;;;4.80;4.30;;;22.60;60.90;;;;;;5093883;28;20275;-81
2021/07/30 01:18:15;;;;;;;4.75;4.32;;;22.60;60.90;;;;;;5110305;28;20191;-81
2021/07/30 01:20:51;;;;;;;4.30;3.90;;;22.60;60.90;;;;;;5128123;28;20180;-81
2021/07/30 01:23:18;;;;;;;4.50;4.10;;;22.60;60.90;;;;;;5110010;28;20191;-82
2021/07/30 01:25:45;;;;;;;4.60;4.20;;;22.70;61.00;;;;;;5093827;28;20255;-80
2021/07/30 01:28:16;;;;;;;4.50;4.10;;;22.60;60.90;;;;;;5110096;28;20239;-81
2021/07/30 01:30:43;;;;;;;4.50;4.10;;;22.60;60.90;;;;;;5128244;28;20172;-80
2021/07/30 01:33:13;;;;;;;4.30;3.90;;;22.60;60.80;;;;;;5109898;28;20183;-80
2021/07/30 01:35:40;;;;;;;4.60;4.20;;;22.60;60.80;;;;;;5127860;28;20279;-81
2021/07/30 01:38:09;;;;;;;5.13;4.38;;;22.60;60.90;;;;;;5126706;28;20195;-82
2021/07/30 01:40:38;;;;;;;4.65;4.25;;;22.60;60.90;;;;;;5109988;28;20207;-82
2021/07/30 01:43:05;;;;;;;4.20;3.80;;;22.60;60.90;;;;;;5110626;28;20187;-81
2021/07/30 01:45:32;;;;;;;4.25;3.85;;;22.70;61.80;;;;;;5109852;28;20271;-81
2021/07/30 01:48:02;;;;;;;4.55;4.15;;;22.60;60.80;;;;;;5127221;28;20209;-82
2021/07/30 01:50:29;;;;;;;4.45;4.05;;;22.60;60.80;;;;;;5127910;28;20183;-81
2021/07/30 01:52:57;;;;;;;4.30;3.90;;;22.60;60.80;;;;;;5110590;28;20201;-82
2021/07/30 01:55:28;;;;;;;4.28;3.88;;;22.60;60.90;;;;;;5110755;28;20192;-82
2021/07/30 01:57:55;;;;;;;4.78;4.38;;;22.60;60.80;;;;;;5127956;28;20239;-81
2021/07/30 02:00:26;;;;;;;4.20;3.80;;;22.60;61.70;;;;;;5109918;28;20207;-82
2021/07/30 02:02:55;;;;;;;4.60;4.15;;;22.60;60.80;;;;;;5110419;28;20180;-81
2021/07/30 02:05:23;;;;;;;4.20;3.80;;;22.60;60.90;;;;;;5109946;28;20191;-81
2021/07/30 02:07:49;;;;;;;4.07;3.67;;;22.60;60.80;;;;;;5067702;28;20214;-81
2021/07/30 02:10:17;;;;;;;4.15;3.75;;;22.60;60.90;;;;;;5007796;28;20168;-81
2021/07/30 02:15:26;;;;;;;4.78;4.38;;;22.60;60.80;;;;;;5023907;28;20216;-82
2021/07/30 02:17:53;;;;;;;4.22;3.83;;;22.70;60.90;;;;;;5023084;28;20182;-82
2021/07/30 02:20:26;;;;;;;4.63;4.20;;;22.60;60.70;;;;;;5023360;28;20167;-81
2021/07/30 02:22:52;;;;;;;4.43;4.03;;;22.60;60.80;;;;;;5006889;28;20195;-82
2021/07/30 02:25:18;;;;;;;4.30;3.90;;;22.60;60.80;;;;;;5007446;28;20252;-81
2021/07/30 02:27:45;;;;;;;4.15;3.75;;;22.70;60.90;;;;;;5023368;28;20160;-81
2021/07/30 02:30:16;;;;;;;4.10;3.72;;;22.60;60.80;;;;;;5007558;28;20144;-82
2021/07/30 02:32:47;;;;;;;4.40;4.00;;;22.60;60.80;;;;;;5074760;28;20195;-82
2021/07/30 02:35:16;;;;;;;3.95;3.60;;;22.60;60.80;;;;;;4973288;28;20195;-81
2021/07/30 02:37:47;;;;;;;4.25;3.85;;;22.60;60.70;;;;;;5006452;28;20527;-81
2021/07/30 02:40:18;;;;;;;4.40;4.00;;;22.70;60.70;;;;;;5006288;28;20213;-81
2021/07/30 02:42:48;;;;;;;4.30;3.90;;;22.70;60.80;;;;;;4973633;28;20190;-81
2021/07/30 02:45:20;;;;;;;4.43;4.03;;;22.60;60.70;;;;;;5058571;28;20179;-81
2021/07/30 02:47:48;;;;;;;4.72;4.32;;;22.60;60.70;;;;;;5005820;28;20183;-82
2021/07/30 02:50:19;;;;;;;4.50;4.10;;;22.60;60.80;;;;;;4989546;28;20203;-81
2021/07/30 02:52:45;;;;;;;4.50;4.10;;;22.60;60.80;;;;;;5075008;28;20179;-81
2021/07/30 02:55:13;;;;;;;4.18;3.80;;;22.60;60.80;;;;;;5007231;28;20156;-81
2021/07/30 02:57:43;;;;;;;4.07;3.67;;;22.60;60.70;;;;;;5074471;28;20191;-81
2021/07/30 03:00:09;;;;;;;4.63;4.00;;;22.60;60.80;;;;;;4990362;28;20203;-81
2021/07/30 03:02:37;;;;;;;4.20;3.80;;;22.60;60.80;;;;;;5006271;28;20175;-82
2021/07/30 03:05:05;;;;;;;4.35;3.95;;;22.60;60.80;;;;;;4989911;28;20210;-81
2021/07/30 03:07:38;;;;;;;4.32;3.92;;;22.60;60.80;;;;;;5069337;28;20227;-81
2021/07/30 03:10:09;;;;;;;4.50;4.10;;;22.70;60.90;;;;;;5007280;28;20226;-82
2021/07/30 03:12:36;;;;;;;4.40;4.00;;;22.60;60.70;;;;;;5005987;28;20191;-81
2021/07/30 03:15:04;;;;;;;3.85;3.55;;;22.60;60.80;;;;;;5006252;28;20206;-81
2021/07/30 03:17:32;;;;;;;4.25;3.85;;;22.70;60.80;;;;;;5021932;28;20551;-81
2021/07/30 03:19:59;;;;;;;4.35;3.95;;;22.70;60.90;;;;;;5090596;28;20183;-81
2021/07/30 03:22:27;;;;;;;4.22;3.83;;;22.60;60.80;;;;;;5006415;28;20183;-81
2021/07/30 03:24:57;;;;;;;4.40;4.00;;;22.60;60.70;;;;;;5005687;28;20254;-81
2021/07/30 03:27:24;;;;;;;4.03;3.65;;;22.60;60.70;;;;;;5074122;28;20204;-82
2021/07/30 03:29:51;;;;;;;4.10;3.70;;;22.60;60.70;;;;;;4989802;28;20211;-81
2021/07/30 03:32:22;;;;;;;4.30;3.90;;;22.70;60.70;;;;;;5038303;28;20184;-82
2021/07/30 03:34:49;;;;;;;4.38;3.97;;;22.70;60.60;;;;;;5006415;28;20188;-81
2021/07/30 03:37:16;;;;;;;4.10;3.70;;;22.60;60.70;;;;;;5004896;28;20294;-81
2021/07/30 03:39:46;;;;;;;4.47;4.07;;;22.60;60.70;;;;;;5005444;28;20179;-81
2021/07/30 03:42:15;;;;;;;4.20;3.80;;;22.60;60.80;;;;;;5005294;28;20180;-82
2021/07/30 03:44:41;;;;;;;3.95;3.58;;;22.60;60.80;;;;;;5021117;28;20205;-81
2021/07/30 03:47:07;;;;;;;4.18;3.78;;;22.60;60.70;;;;;;5005145;28;20172;-81
2021/07/30 03:49:34;;;;;;;4.32;3.92;;;22.60;60.60;;;;;;5006342;28;20168;-82
2021/07/30 03:52:01;;;;;;;4.35;3.95;;;22.60;60.70;;;;;;5022174;28;20190;-81
2021/07/30 03:54:29;;;;;;;4.20;3.80;;;22.60;60.80;;;;;;5005854;28;20175;-81
2021/07/30 03:56:59;;;;;;;4.15;3.75;;;22.60;60.70;;;;;;5090941;28;20238;-81
2021/07/30 03:59:27;;;;;;;4.28;3.88;;;22.60;60.70;;;;;;5074037;28;20312;-81
2021/07/30 04:01:57;;;;;;;4.00;3.70;;;22.60;60.70;;;;;;5021340;28;20183;-82
2021/07/30 04:04:32;;;;;;;3.92;3.58;;;22.70;60.90;;;;;;5005617;28;20216;-81
2021/07/30 04:06:57;;;;;;;3.95;3.55;;;22.60;60.70;;;;;;5004879;28;20287;-81
2021/07/30 04:09:26;;;;;;;3.95;3.60;;;22.60;60.70;;;;;;5006722;28;20207;-81
2021/07/30 04:11:53;;;;;;;4.00;3.60;;;22.60;60.80;;;;;;5005362;28;20240;-81
2021/07/30 04:14:20;;;;;;;3.95;3.50;;;22.60;60.40;;;;;;5005847;28;20183;-81
2021/07/30 04:16:50;;;;;;;3.90;3.60;;;22.70;60.80;;;;;;5004687;28;20223;-81
2021/07/30 04:19:16;;;;;;;3.70;3.40;;;22.60;60.30;;;;;;4989171;28;20175;-81
2021/07/30 04:21:46;;;;;;;2.97;2.78;;;22.60;60.10;;;;;;5021117;28;20189;-81
2021/07/30 04:24:14;;;;;;;3.20;2.90;;;22.50;60.30;;;;;;5005870;28;20175;-81
2021/07/30 04:26:41;;;;;;;3.45;3.15;;;22.50;60.30;;;;;;5020636;28;20186;-81
2021/07/30 04:29:08;;;;;;;3.30;3.00;;;22.40;60.30;;;;;;4988282;28;20183;-81
2021/07/30 04:31:39;;;;;;;3.70;3.35;;;22.30;60.50;;;;;;5004501;28;20179;-81
2021/07/30 04:34:09;;;;;;;3.70;2.90;;;22.30;60.80;;;;;;5020462;28;20180;-81
2021/07/30 04:36:40;;;;;;;3.00;2.80;;;22.20;60.90;;;;;;5090631;28;20293;-82
2021/07/30 04:39:09;;;;;;;2.78;2.58;;;22.10;61.00;;;;;;5020810;28;20226;-81
2021/07/30 04:41:40;;;;;;;3.08;2.78;;;22.10;61.00;;;;;;5072783;28;20180;-81
2021/07/30 04:44:07;;;;;;;3.15;2.85;;;22.10;61.30;;;;;;5004214;28;20281;-82
2021/07/30 04:46:37;;;;;;;3.20;2.90;;;22.00;61.20;;;;;;5005333;28;20185;-82
2021/07/30 04:49:03;;;;;;;2.90;2.60;;;22.00;61.50;;;;;;5021027;28;20183;-81
2021/07/30 04:51:36;;;;;;;2.92;2.63;;;21.90;61.50;;;;;;5005196;28;20163;-81
2021/07/30 04:54:02;;;;;;;2.70;2.50;;;21.90;61.60;;;;;;5004428;28;20204;-82
2021/07/30 04:56:33;;;;;;;2.63;2.33;;;21.90;61.90;;;;;;4989090;28;20200;-81
2021/07/30 04:59:04;;;;;;;2.70;2.50;;;21.90;62.00;;;;;;5005910;28;20194;-82
2021/07/30 05:01:33;;;;;;;2.90;2.70;;;21.80;62.10;;;;;;5023977;28;20186;-82
2021/07/30 05:04:01;;;;;;;2.70;2.50;;;21.80;62.10;;;;;;5092485;28;20233;-81
2021/07/30 05:06:27;;;;;;;2.50;2.30;;;21.70;62.20;;;;;;5024145;28;20234;-81
2021/07/30 05:08:55;;;;;;;2.80;2.60;;;21.70;62.30;;;;;;5009132;28;20164;-82
2021/07/30 05:11:27;;;;;;;2.63;2.42;;;21.70;62.30;;;;;;5007879;28;20243;-81
2021/07/30 05:13:58;;;;;;;2.45;2.25;;;21.70;62.30;;;;;;5075994;28;20182;-81
2021/07/30 05:16:27;;;;;;;2.50;2.30;;;21.70;62.40;;;;;;5007240;28;20215;-82
2021/07/30 05:18:55;;;;;;;2.50;2.30;;;21.70;62.40;;;;;;5007663;28;20240;-81
2021/07/30 05:21:23;;;;;;;2.60;2.40;;;21.70;62.40;;;;;;5075224;28;20195;-81
2021/07/30 05:23:50;;;;;;;2.50;2.30;;;21.70;62.40;;;;;;4990932;28;20194;-82
2021/07/30 05:26:18;;;;;;;2.45;2.25;;;21.60;62.30;;;;;;5007406;28;20274;-81
2021/07/30 05:28:45;;;;;;;2.67;2.47;;;21.60;62.30;;;;;;4991241;28;20195;-81
2021/07/30 05:31:16;;;;;;;2.58;2.38;;;21.60;62.50;;;;;;5007833;28;20188;-82
2021/07/30 05:33:44;;;;;;;2.33;2.13;;;21.60;62.50;;;;;;5006692;28;20211;-81
2021/07/30 05:36:17;;;;;;;2.40;2.20;;;21.60;62.50;;;;;;5006363;28;20207;-82
2021/07/30 05:38:45;;;;;;;2.50;2.30;;;21.60;62.60;;;;;;5007757;28;20191;-82
2021/07/30 05:41:15;;;;;;;2.53;2.22;;;21.60;62.50;;;;;;5022652;28;20183;-81
2021/07/30 05:43:41;;;;;;;2.53;2.33;;;21.70;62.50;;;;;;5023315;28;20274;-81
2021/07/30 05:46:09;;;;;;;2.38;2.17;;;21.60;62.50;;;;;;5023534;28;20171;-82
2021/07/30 05:48:36;;;;;;;2.58;2.38;;;21.60;62.50;;;;;;5108799;28;20180;-82
2021/07/30 05:51:04;;;;;;;2.38;2.17;;;21.60;62.40;;;;;;5006841;28;20179;-81
2021/07/30 05:53:30;;;;;;;2.40;2.20;;;21.60;62.50;;;;;;4991034;28;20209;-83
2021/07/30 05:55:58;;;;;;;2.58;2.38;;;21.60;62.50;;;;;;5006385;28;20241;-82
2021/07/30 05:58:25;;;;;;;2.58;2.38;;;21.60;62.50;;;;;;5007196;28;20207;-81
2021/07/30 06:00:52;;;;;;;2.40;2.20;;;21.60;62.60;;;;;;5024051;28;20197;-81
2021/07/30 06:03:19;;;;;;;2.17;1.98;;;21.60;62.50;;;;;;4989584;28;20221;-82
2021/07/30 06:05:45;;;;;;;2.53;2.33;;;21.60;62.60;;;;;;5005914;28;20711;-82
2021/07/30 06:08:21;;;;;;;2.55;2.35;;;21.60;62.50;;;;;;5022528;28;20319;-81
2021/07/30 06:10:51;;;;;;;2.58;2.38;;;21.60;62.40;;;;;;4989739;28;20191;-81
2021/07/30 06:13:18;;;;;;;2.20;2.00;;;21.60;62.50;;;;;;5006101;28;20243;-81
2021/07/30 06:15:54;;;;;;;2.92;2.08;;;21.60;62.50;;;;;;5022183;28;20214;-81
2021/07/30 06:18:21;;;;;;;2.22;2.03;;;21.70;62.50;;;;;;5021977;28;20187;-82
2021/07/30 06:20:48;;;;;;;2.28;2.08;;;21.50;62.20;;;;;;5006652;28;20533;-82
2021/07/30 06:23:14;;;;;;;2.15;1.98;;;21.60;62.30;;;;;;5022849;28;20205;-82
2021/07/30 06:25:40;;;;;;;2.40;2.20;;;21.60;62.20;;;;;;5023266;28;20160;-81
2021/07/30 06:28:06;;;;;;;2.25;2.05;;;21.60;62.10;;;;;;5024201;28;20219;-81
2021/07/30 06:30:32;;;;;;;2.45;2.25;;;21.60;62.20;;;;;;5023038;28;20221;-81
2021/07/30 06:33:09;;;;;;;2.15;1.95;;;21.60;62.20;;;;;;5022971;28;20242;-81
2021/07/30 06:35:35;;;;;;;2.25;2.05;;;21.60;61.90;;;;;;5005610;28;20226;-82
2021/07/30 06:38:07;;;;;;;2.72;2.53;;;21.60;62.00;;;;;;5023310;28;20197;-82
2021/07/30 06:40:38;;;;;;;2.50;2.30;;;21.60;62.10;;;;;;5005739;28;20186;-81
2021/07/30 06:43:04;;;;;;;2.42;2.22;;;21.60;61.90;;;;;;5090754;28;20237;-81
2021/07/30 06:45:35;;;;;;;2.53;2.33;;;21.60;62.00;;;;;;5022945;28;20156;-82
2021/07/30 06:48:08;;;;;;;2.45;2.25;;;21.60;61.80;;;;;;5006132;28;20175;-82
2021/07/30 06:50:34;;;;;;;2.28;2.05;;;21.60;61.80;;;;;;5005838;28;20189;-81
2021/07/30 06:53:00;;;;;;;2.40;2.20;;;21.50;62.00;;;;;;5006852;28;20185;-81
2021/07/30 06:55:26;;;;;;;2.20;2.00;;;21.60;61.80;;;;;;5005960;28;20191;-81
2021/07/30 06:57:52;;;;;;;2.40;2.20;;;21.60;62.00;;;;;;5022785;28;20190;-81
2021/07/30 07:00:24;;;;;;;2.10;1.90;;;21.60;61.90;;;;;;4990541;28;20523;-82
2021/07/30 07:02:50;;;;;;;2.50;2.30;;;21.60;62.10;;;;;;5006285;28;20241;-81
2021/07/30 07:05:18;;;;;;;2.38;2.17;;;21.60;61.80;;;;;;5005916;28;20185;-82
2021/07/30 07:07:44;;;;;;;2.50;2.25;;;21.60;61.90;;;;;;5021617;28;20232;-82
2021/07/30 07:10:15;;;;;;;2.70;2.50;;;21.60;62.00;;;;;;5025656;28;20167;-81
2021/07/30 07:12:41;;;;;;;2.58;2.20;;;21.60;62.00;;;;;;5076766;28;20190;-82
2021/07/30 07:15:13;;;;;;;2.20;2.00;;;21.60;61.70;;;;;;5042204;28;20183;-81
2021/07/30 07:17:43;;;;;;;2.60;2.40;;;21.50;61.90;;;;;;5008135;28;20214;-81
2021/07/30 07:20:09;;;;;;;2.40;2.20;;;21.60;61.90;;;;;;5025253;28;20202;-81
2021/07/30 07:22:40;;;;;;;2.50;2.30;;;21.50;61.80;;;;;;5041282;28;20155;-82
2021/07/30 07:25:07;;;;;;;1.98;1.88;;;21.50;61.80;;;;;;5076921;28;20182;-81
2021/07/30 07:27:39;;;;;;;2.22;2.05;;;21.50;62.00;;;;;;5041842;28;20155;-81
2021/07/30 07:30:10;;;;;;;2.40;2.20;;;21.60;62.00;;;;;;5009326;28;20207;-81
2021/07/30 07:32:36;;;;;;;2.45;1.95;;;21.60;62.00;;;;;;5024945;28;20175;-81
2021/07/30 07:35:07;;;;;;;2.40;2.17;;;21.50;61.80;;;;;;5041887;28;20185;-82
2021/07/30 07:37:33;;;;;;;1.92;1.83;;;21.50;62.00;;;;;;5076432;28;20195;-81
2021/07/30 07:39:59;;;;;;;2.60;2.40;;;21.50;62.00;;;;;;5043049;28;20206;-82
2021/07/30 07:42:25;;;;;;;1.95;1.83;;;21.50;62.00;;;;;;5026216;28;20167;-81
2021/07/30 07:44:55;;;;;;;2.50;2.30;;;21.50;62.00;;;;;;5042037;28;20163;-81
2021/07/30 07:47:25;;;;;;;2.13;1.95;;;21.50;62.10;;;;;;5008245;28;20580;-81
2021/07/30 07:49:55;;;;;;;2.53;2.33;;;21.60;62.10;;;;;;5024161;28;20193;-82
2021/07/30 07:52:21;;;;;;;2.22;2.03;;;21.50;62.00;;;;;;5024630;28;20191;-81
2021/07/30 07:54:47;;;;;;;2.58;2.38;;;21.50;62.10;;;;;;5025814;28;20231;-81
2021/07/30 07:57:13;;;;;;;2.28;2.08;;;21.50;62.10;;;;;;5025866;28;20615;-81
2021/07/30 07:59:45;;;;;;;2.38;2.10;;;21.50;62.10;;;;;;5041832;28;20223;-81
2021/07/30 08:02:13;;;;;;;2.50;2.30;;;21.50;62.70;;;;;;5093134;28;20212;-82
2021/07/30 08:04:40;;;;;;;2.20;2.05;;;21.50;62.20;;;;;;5025461;28;20158;-81
2021/07/30 08:07:10;;;;;;;2.40;2.20;;;21.50;62.30;;;;;;5093141;28;20234;-81
2021/07/30 08:09:40;;;;;;;2.42;2.22;;;21.50;62.30;;;;;;5040870;28;20151;-81
2021/07/30 08:12:10;;;;;;;2.40;2.20;;;21.50;62.40;;;;;;5092565;28;20179;-81
2021/07/30 08:14:38;;;;;;;2.45;2.25;;;21.50;62.60;;;;;;5023557;28;20182;-83
2021/07/30 08:17:08;;;;;;;2.50;2.30;;;21.50;62.60;;;;;;5024852;28;20284;-81
2021/07/30 08:19:40;;;;;;;1.90;1.80;;;21.50;62.70;;;;;;5092285;28;20183;-81
2021/07/30 08:22:06;;;;;;;2.50;2.30;;;21.50;62.70;;;;;;5091946;28;20197;-82
2021/07/30 08:24:36;;;;;;;2.47;2.28;;;21.50;62.80;;;;;;5024481;28;20187;-81
2021/07/30 08:27:06;;;;;;;2.70;2.50;;;21.50;62.90;;;;;;5007240;28;20650;-82
2021/07/30 08:29:32;;;;;;;2.40;2.20;;;21.50;62.90;;;;;;5041371;28;20151;-81
2021/07/30 08:31:58;;;;;;;2.88;2.53;;;21.50;62.90;;;;;;5024483;28;20155;-82
2021/07/30 08:34:24;;;;;;;2.40;2.20;;;21.50;63.00;;;;;;5027715;28;20182;-81
2021/07/30 08:36:51;;;;;;;2.30;2.10;;;21.50;63.10;;;;;;5044447;28;20193;-81
2021/07/30 08:39:17;;;;;;;2.70;2.50;;;21.40;63.10;;;;;;5028559;28;20174;-81
2021/07/30 08:41:44;;;;;;;2.67;2.47;;;21.50;63.20;;;;;;5028690;28;20170;-82
2021/07/30 08:44:14;;;;;;;2.72;2.53;;;21.50;63.20;;;;;;5046322;28;20155;-81
2021/07/30 08:46:40;;;;;;;2.83;2.45;;;21.50;63.40;;;;;;5011659;28;20253;-81
2021/07/30 08:49:10;;;;;;;2.40;2.20;;;21.50;63.50;;;;;;5028923;28;20216;-81
2021/07/30 08:51:42;;;;;;;2.45;2.25;;;21.50;63.50;;;;;;5011141;28;20206;-81
2021/07/30 08:54:14;;;;;;;2.30;2.10;;;21.50;63.50;;;;;;5012897;28;20227;-81
2021/07/30 08:56:40;;;;;;;2.50;2.30;;;21.50;63.60;;;;;;5011557;28;20218;-81
2021/07/30 08:59:10;;;;;;;2.60;2.40;;;21.50;63.60;;;;;;5044472;28;20245;-81
2021/07/30 09:01:41;;;;;;;2.30;2.10;;;21.50;63.80;;;;;;5097297;28;20187;-81
2021/07/30 09:04:24;;;;;;;2.40;2.20;;;21.50;63.90;;;;;;5096814;28;20271;-81
2021/07/30 09:06:54;;;;;;;2.47;2.28;;;21.50;64.00;;;;;;5091705;28;20214;-81
2021/07/30 09:09:21;;;;;;;2.53;2.33;;;21.50;64.20;;;;;;5012289;28;20548;-81
2021/07/30 09:11:48;;;;;;;2.63;2.30;;;21.50;64.30;;;;;;5028137;28;20203;-81
2021/07/30 09:14:35;;;;;;;2.65;2.40;;;21.50;64.50;;;;;;5010925;28;20183;-81
2021/07/30 09:17:07;;;;;;;2.50;2.30;;;21.50;64.70;;;;;;5072388;28;20707;-81
2021/07/30 09:19:33;;;;;;;2.75;2.55;;;21.50;64.80;;;;;;5080249;28;20183;-81
2021/07/30 09:22:09;;;;;;;3.00;2.70;;;21.40;64.90;;;;;;5028035;28;20155;-81
2021/07/30 09:24:37;;;;;;;2.60;2.40;;;21.40;65.00;;;;;;5011106;28;20182;-81
2021/07/30 09:27:10;;;;;;;2.58;2.38;;;21.40;65.20;;;;;;5011768;28;20206;-81
2021/07/30 09:29:43;;;;;;;2.53;2.33;;;21.50;65.30;;;;;;5010419;28;20183;-80
2021/07/30 09:32:16;;;;;;;2.47;2.28;;;21.40;65.30;;;;;;5011203;28;20250;-82
2021/07/30 09:34:47;;;;;;;2.63;2.42;;;21.50;65.40;;;;;;5010818;28;20707;-81
2021/07/30 09:37:18;;;;;;;2.63;2.42;;;21.40;65.20;;;;;;5027446;28;20195;-81
2021/07/30 09:39:46;;;;;;;2.50;2.30;;;21.50;65.30;;;;;;5027396;28;20258;-81
2021/07/30 09:42:14;;;;;;;2.70;2.30;;;21.50;65.30;;;;;;5011104;28;20170;-81
2021/07/30 09:44:51;;;;;;;2.35;2.15;;;21.50;65.40;;;;;;5026390;28;20159;-81
2021/07/30 09:47:19;;;;;;;2.20;2.00;;;21.60;65.20;;;;;;5025114;28;20170;-81
2021/07/30 09:49:58;;;;;;;2.60;2.40;;;21.50;65.00;;;;;;5011129;28;20192;-80
2021/07/30 09:52:26;;;;;;;2.50;2.30;;;21.60;65.00;;;;;;5043372;28;20163;-81
2021/07/30 09:55:01;;;;;;;2.22;2.03;;;21.60;64.90;;;;;;5026349;28;20196;-81
2021/07/30 09:57:31;;;;;;;2.40;2.20;;;21.50;64.90;;;;;;5077710;28;20280;-82
2021/07/30 09:59:58;;;;;;;2.45;2.25;;;21.60;65.00;;;;;;5043093;28;20244;-81
2021/07/30 10:02:27;;;;;;;2.05;1.92;;;21.60;64.90;;;;;;5026762;28;20242;-82
2021/07/30 10:04:55;;;;;;;2.65;2.45;;;21.60;64.80;;;;;;5009738;28;20239;-81
2021/07/30 10:07:22;;;;;;;2.25;2.03;;;21.60;64.70;;;;;;5018689;28;20282;-81
2021/07/30 10:09:59;;;;;;;2.20;2.00;;;21.60;64.70;;;;;;5026705;28;20159;-81
2021/07/30 10:12:30;;;;;;;2.28;2.08;;;21.60;64.80;;;;;;5028139;28;20247;-81
2021/07/30 10:14:58;;;;;;;2.67;2.22;;;21.60;64.60;;;;;;5111870;28;20189;-81
2021/07/30 10:17:30;;;;;;;1.85;1.75;;;21.60;64.50;;;;;;5009432;28;20218;-81
2021/07/30 10:19:59;;;;;;;2.10;1.90;;;21.60;64.10;;;;;;5094217;28;20187;-81
2021/07/30 10:22:35;;;;;;;2.33;2.13;;;21.60;64.30;;;;;;5043731;28;20148;-80
2021/07/30 10:25:04;;;;;;;2.13;1.92;;;21.60;64.40;;;;;;5027969;28;20159;-80
2021/07/30 10:27:39;;;;;;;2.03;1.83;;;21.60;64.40;;;;;;5078583;28;20190;-81
2021/07/30 10:30:12;;;;;;;2.20;2.00;;;21.60;64.20;;;;;;5027877;28;20207;-80
2021/07/30 10:32:43;;;;;;;2.20;2.00;;;21.60;64.10;;;;;;5095392;28;20186;-81
2021/07/30 10:35:15;;;;;;;2.30;2.10;;;21.60;64.00;;;;;;5027480;28;20586;-81
2021/07/30 10:37:42;;;;;;;2.30;2.10;;;21.70;64.00;;;;;;5010956;28;20187;-81
2021/07/30 10:40:20;;;;;;;2.17;1.98;;;21.80;64.70;;;;;;5043398;28;20569;-81
2021/07/30 10:43:09;;;;;;;2.17;2.03;;;21.80;63.80;;;;;;5044099;28;20162;-81
2021/07/30 10:45:42;;;;;;;2.17;1.98;;;21.90;63.40;;;;;;5095073;28;20182;-81
2021/07/30 10:48:29;;;;;;;2.20;2.00;;;22.00;62.90;;;;;;5042839;28;20606;-81
2021/07/30 10:51:02;;;;;;;2.60;2.40;;;22.00;62.70;;;;;;5045814;28;20165;-81
2021/07/30 10:53:49;;;;;;;2.22;2.05;;;22.00;62.60;;;;;;5026769;28;20197;-81
2021/07/30 10:56:39;;;;;;;2.15;1.95;;;22.10;63.40;;;;;;5041703;28;20190;-81
2021/07/30 10:59:06;;;;;;;2.03;1.92;;;22.00;62.60;;;;;;5042933;28;20233;-81
2021/07/30 11:01:53;;;;;;;1.80;1.70;;;22.00;62.80;;;;;;5027675;28;20219;-81
2021/07/30 11:04:19;;;;;;;1.55;1.45;;;22.00;62.80;;;;;;5045920;28;20622;-80
2021/07/30 11:06:55;;;;;;;1.98;1.88;;;21.90;63.00;;;;;;5043037;28;20222;-81
2021/07/30 11:09:24;;;;;;;1.63;1.52;;;21.90;62.90;;;;;;5027127;28;20238;-83
2021/07/30 11:11:56;;;;;;;2.10;1.90;;;21.90;63.20;;;;;;5026819;28;20196;-80
2021/07/30 11:14:28;;;;;;;1.58;1.48;;;21.90;63.40;;;;;;5010168;28;20215;-81
2021/07/30 11:17:04;;;;;;;1.60;1.50;;;21.90;63.40;;;;;;5094247;28;20221;-81
2021/07/30 11:19:45;;;;;;;1.73;1.63;;;21.90;63.70;;;;;;5010052;28;20194;-80
2021/07/30 11:22:13;;;;;;;1.67;1.58;;;21.80;63.80;;;;;;5042747;28;20210;-81
2021/07/30 11:24:47;;;;;;;1.60;1.50;;;21.80;64.10;;;;;;5026279;28;20196;-81
2021/07/30 11:27:19;;;;;;;1.50;1.40;;;21.80;64.20;;;;;;5025632;28;20205;-81
2021/07/30 11:29:48;;;;;;;1.70;1.55;;;21.90;64.30;;;;;;5009379;28;20183;-80
2021/07/30 11:32:20;;;;;;;1.55;1.45;;;21.90;64.40;;;;;;5026882;28;20212;-80
2021/07/30 11:34:51;;;;;;;1.60;1.50;;;21.80;65.20;;;;;;5094500;28;20182;-80
2021/07/30 11:37:26;;;;;;;1.70;1.60;;;21.80;64.50;;;;;;5094135;28;20278;-79
2021/07/30 11:39:54;;;;;;;1.38;1.27;;;21.80;64.60;;;;;;5042824;28;20163;-81
2021/07/30 11:42:27;;;;;;;1.60;1.50;;;21.80;64.50;;;;;;5025620;28;20238;-79
2021/07/30 11:45:00;;;;;;;1.60;1.50;;;21.80;64.60;;;;;;5026329;28;20171;-84
2021/07/30 11:47:32;;;;;;;5.30;1.80;;;21.80;64.70;;;;;;5125581;28;20187;-80
2021/07/30 11:50:05;;;;;;;1.60;1.50;;;21.80;64.70;;;;;;5057259;28;20184;-80
2021/07/30 11:52:39;;;;;;;1.73;1.63;;;21.80;64.60;;;;;;5107870;28;20179;-79
2021/07/30 11:55:17;;;;;;;1.60;1.50;;;21.70;64.40;;;;;;5075866;28;20180;-80
2021/07/30 11:57:44;;;;;;;1.80;1.70;;;21.80;64.30;;;;;;5041185;28;20191;-79
2021/07/30 12:00:11;;;;;;;2.03;1.80;;;21.80;64.30;;;;;;5107813;28;20152;-79
2021/07/30 12:02:42;;;;;;;1.80;1.70;;;21.80;64.30;;;;;;5108117;28;20263;-80
2021/07/30 12:05:18;;;;;;;1.45;1.35;;;21.80;64.30;;;;;;5073959;28;20199;-80
2021/07/30 12:07:44;;;;;;;2.10;1.80;;;21.80;64.40;;;;;;5073311;28;20223;-79
2021/07/30 12:10:16;;;;;;;1.58;1.48;;;21.80;64.50;;;;;;5107057;28;20202;-80
2021/07/30 12:13:05;;;;;;;1.60;1.50;;;21.80;64.50;;;;;;5059194;28;20187;-79
2021/07/30 12:15:32;;;;;;;1.55;1.45;;;21.80;64.50;;;;;;5091110;28;20180;-78
2021/07/30 12:18:00;;;;;;;1.50;1.40;;;21.80;64.60;;;;;;5067994;28;20519;-79
2021/07/30 12:20:34;;;;;;;1.95;1.80;;;21.80;64.80;;;;;;5042700;28;20670;-80
2021/07/30 12:23:05;;;;;;;1.60;1.50;;;21.80;65.10;;;;;;5026378;28;20195;-80
2021/07/30 12:25:48;;;;;;;1.50;1.40;;;21.80;65.40;;;;;;5009947;28;20167;-80
2021/07/30 12:28:21;;;;;;;1.70;1.60;;;21.80;65.80;;;;;;5042650;28;20185;-80
2021/07/30 12:30:52;;;;;;;1.60;1.50;;;21.70;66.30;;;;;;5024754;28;20182;-80
2021/07/30 12:33:26;;;;;;;1.70;1.60;;;21.70;66.60;;;;;;5026275;28;20234;-79
2021/07/30 12:36:09;;;;;;;1.88;1.45;;;21.60;66.90;;;;;;5041462;28;20198;-79
2021/07/30 12:38:48;;;;;;;1.48;1.38;;;21.70;67.60;;;;;;5026295;28;20186;-79
2021/07/30 12:41:15;;;;;;;1.33;1.23;;;21.70;67.70;;;;;;5041970;28;20151;-80
2021/07/30 12:43:44;;;;;;;1.58;1.48;;;21.70;67.80;;;;;;5009412;28;20178;-79
2021/07/30 12:46:29;;;;;;;1.40;1.30;;;21.70;67.90;;;;;;5009834;28;20198;-79
2021/07/30 12:48:55;;;;;;;1.70;1.60;;;21.70;67.90;;;;;;5025146;28;20175;-79
2021/07/30 12:51:23;;;;;;;1.83;1.40;;;21.70;67.90;;;;;;5009187;28;20171;-79
2021/07/30 12:54:09;;;;;;;1.60;1.50;;;21.70;67.90;;;;;;5025467;28;20229;-79
2021/07/30 12:56:57;;;;;;;4.13;1.23;;;21.70;68.10;;;;;;5042038;28;20187;-79
2021/07/30 12:59:46;;;;;;;1.52;1.40;;;21.70;68.30;;;;;;5041383;28;20246;-79
2021/07/30 13:02:13;;;;;;;2.10;1.52;;;21.70;68.00;;;;;;5041184;28;20227;-79
2021/07/30 13:04:44;;;;;;;1.80;1.40;;;21.60;67.80;;;;;;5041537;28;20163;-79